CYTQ

Tasiujaq Airport

Tasiujaq, Quebec, Canada
METAR CYTQ 192000Z 30014KT 15SM SCT062 BKN100 BKN240 12/04 A2953 RMK SC4AC3CI1 CI TR SLP002 DENSITY ALT 200FT
Observed Flight Rules
Jun-19 @ 20:00 UTC (14 minutes ago) Visual Flight Rules
Wind Visibility Clouds
300° at 14 knots 15 miles
  • Scattered at 6,200' AGL
  • Broken at 10,000' AGL
  • Broken at 24,000' AGL
Temperatures Readings
Current 12°C / 54°F
Dewpoint 4°C / 39°F
Humidity 58%
Altimeter 29.53" Hg
Pressure 1000.2 hPa
Elevation 31
METAR CYTQ 192000Z 30014KT 15SM SCT062 BKN100 BKN240 12/04 A2953 RMK SC4AC3CI1 CI TR SLP002 DENSITY ALT 200FT
Observed Flight Rules
Jun-19 @ 20:00 UTC
(14 minutes ago)
VFR
Wind Visibility
300° at 14 knots 15 miles
Clouds
  • Scattered at 6,200' AGL
  • Broken at 10,000' AGL
  • Broken at 24,000' AGL
Temperature Dewpoint
12°C / 54°F 4°C / 39°F
Humidity Altimeter Pressure
58% 29.53" Hg 1000.2 hPa